createdAt,value
2017-09-10T00:00:07.795Z,96857.45
2017-09-10T00:02:35.318Z,96860.34
2017-09-10T00:05:02.826Z,96864.78
2017-09-10T00:07:30.341Z,96864.91
2017-09-10T00:09:57.852Z,96868.86
2017-09-10T00:12:25.364Z,96870.09
2017-09-10T00:14:52.896Z,96870.83
2017-09-10T00:17:20.402Z,96860.31
2017-09-10T00:19:47.897Z,96858.27
2017-09-10T00:22:15.442Z,96863.59
2017-09-10T00:24:42.943Z,96865.06
2017-09-10T00:27:10.455Z,96867.45
2017-09-10T00:29:37.965Z,96870.70
2017-09-10T00:32:05.462Z,96873.03
2017-09-10T00:34:32.980Z,96865.75
2017-09-10T00:37:00.498Z,96865.12
2017-09-10T00:39:27.994Z,96860.94
2017-09-10T00:41:55.507Z,96868.28
2017-09-10T00:44:23.195Z,96869.43
2017-09-10T00:46:50.727Z,96866.25
2017-09-10T00:49:18.258Z,96868.28
2017-09-10T00:51:45.767Z,96869.48
2017-09-10T00:54:13.379Z,96867.48
2017-09-10T00:56:40.891Z,96869.08
2017-09-10T00:59:08.445Z,96869.97
2017-09-10T01:01:35.955Z,96872.45
2017-09-10T01:04:03.510Z,96869.61
2017-09-10T01:06:31.015Z,96866.71
2017-09-10T01:08:58.535Z,96874.89
2017-09-10T01:11:26.048Z,96872.30
2017-09-10T01:13:53.574Z,96876.98
2017-09-10T01:16:21.103Z,96876.91
2017-09-10T01:18:48.615Z,96877.31
2017-09-10T01:21:16.120Z,96874.82
2017-09-10T01:23:43.634Z,96875.27
2017-09-10T01:26:11.152Z,96879.78
2017-09-10T01:28:38.670Z,96883.30
2017-09-10T01:31:06.197Z,96882.09
2017-09-10T01:33:33.718Z,96884.30
2017-09-10T01:36:01.232Z,96882.61
2017-09-10T01:38:28.759Z,96890.66
2017-09-10T01:40:56.274Z,96888.60
2017-09-10T01:43:23.785Z,96894.25
2017-09-10T01:45:51.297Z,96894.89
2017-09-10T01:48:18.800Z,96900.65
2017-09-10T01:50:46.314Z,96897.88
2017-09-10T01:53:13.819Z,96902.86
2017-09-10T01:55:41.381Z,96908.13
2017-09-10T01:58:08.896Z,96904.39
2017-09-10T02:00:36.422Z,96908.56
2017-09-10T02:03:03.936Z,96904.38
2017-09-10T02:05:31.454Z,96912.01
2017-09-10T02:07:58.959Z,96916.68
2017-09-10T02:10:26.469Z,96917.65
2017-09-10T02:12:53.989Z,96924.69
2017-09-10T02:15:21.522Z,96922.73
2017-09-10T02:17:49.036Z,96931.77
2017-09-10T02:20:16.543Z,96931.81
2017-09-10T02:22:44.064Z,96929.39
2017-09-10T02:25:11.582Z,96931.32
2017-09-10T02:27:39.095Z,96926.30
2017-09-10T02:30:06.604Z,96933.41
2017-09-10T02:32:34.116Z,96928.61
2017-09-10T02:35:01.624Z,96929.50
2017-09-10T02:37:29.146Z,96929.27
2017-09-10T02:39:56.690Z,96931.67
2017-09-10T02:42:24.197Z,96938.44
2017-09-10T02:44:51.731Z,96936.58
2017-09-10T02:47:19.244Z,96938.48
2017-09-10T02:49:46.767Z,96939.80
2017-09-10T02:52:14.270Z,96940.33
2017-09-10T02:54:41.869Z,96950.95
2017-09-10T02:57:09.393Z,96956.29
2017-09-10T02:59:36.907Z,96955.44
2017-09-10T03:02:04.415Z,96957.94
2017-09-10T03:04:31.932Z,96953.87
2017-09-10T03:06:59.431Z,96953.78
2017-09-10T03:09:26.934Z,96947.85
2017-09-10T03:11:54.477Z,96950.41
2017-09-10T03:14:22.013Z,96962.45
2017-09-10T03:16:49.519Z,96964.22
2017-09-10T03:19:17.049Z,96971.98
2017-09-10T03:21:44.586Z,96968.58
2017-09-10T03:24:12.116Z,96963.89
2017-09-10T03:26:39.642Z,96957.52
2017-09-10T03:29:07.151Z,96959.42
2017-09-10T03:31:34.658Z,96967.13
2017-09-10T03:34:02.164Z,96957.45
2017-09-10T03:36:29.674Z,96954.83
2017-09-10T03:38:57.171Z,96959.00
2017-09-10T03:41:24.712Z,96966.16
2017-09-10T03:43:52.236Z,96967.47
2017-09-10T03:46:19.735Z,96965.03
2017-09-10T03:48:47.240Z,96954.08
2017-09-10T03:51:14.752Z,96958.41
2017-09-10T03:53:42.270Z,96968.05
2017-09-10T03:56:09.796Z,96972.05
2017-09-10T03:58:37.294Z,96977.26
2017-09-10T04:01:04.812Z,96982.41
2017-09-10T04:03:32.327Z,96981.05
2017-09-10T04:05:59.837Z,96977.92
2017-09-10T04:08:27.342Z,96978.03
2017-09-10T04:10:54.884Z,96980.19
2017-09-10T04:13:22.392Z,96983.58
2017-09-10T04:15:49.915Z,96990.94
2017-09-10T04:18:17.425Z,96991.44
2017-09-10T04:20:44.947Z,96997.66
2017-09-10T04:23:12.458Z,97003.00
2017-09-10T04:25:39.977Z,97006.02
2017-09-10T04:28:07.490Z,97012.77
2017-09-10T04:30:35.005Z,97009.67
2017-09-10T04:33:02.512Z,97004.57
2017-09-10T04:35:30.035Z,97005.08
2017-09-10T04:37:57.540Z,97018.58
2017-09-10T04:40:25.077Z,97023.70
2017-09-10T04:42:52.624Z,97023.05
2017-09-10T04:45:20.124Z,97025.34
2017-09-10T04:47:47.628Z,97029.62
2017-09-10T04:50:15.554Z,97032.33
2017-09-10T04:52:43.216Z,97034.31
2017-09-10T04:55:10.731Z,97021.73
2017-09-10T04:57:38.251Z,97027.45
2017-09-10T05:00:05.777Z,97028.70
2017-09-10T05:02:33.312Z,97028.73
2017-09-10T05:05:00.820Z,97034.63
2017-09-10T05:07:28.405Z,97038.73
2017-09-10T05:09:55.916Z,97039.94
2017-09-10T05:12:23.429Z,97040.73
2017-09-10T05:14:50.948Z,97047.73
2017-09-10T05:17:18.637Z,97046.45
2017-09-10T05:19:46.151Z,97055.06
2017-09-10T05:22:13.680Z,97058.64
2017-09-10T05:24:41.203Z,97063.05
2017-09-10T05:27:08.720Z,97067.88
2017-09-10T05:29:36.242Z,97061.55
2017-09-10T05:32:03.763Z,97055.64
2017-09-10T05:34:31.284Z,97046.08
2017-09-10T05:36:58.788Z,97051.71
2017-09-10T05:39:26.310Z,97058.19
2017-09-10T05:41:53.826Z,97063.84
2017-09-10T05:44:21.336Z,97077.20
2017-09-10T05:46:48.838Z,97077.97
2017-09-10T05:49:16.339Z,97082.14
2017-09-10T05:51:43.861Z,97089.36
2017-09-10T05:54:11.390Z,97089.05
2017-09-10T05:56:38.902Z,97090.56
2017-09-10T05:59:06.426Z,97089.16
2017-09-10T06:01:33.941Z,97095.02
2017-09-10T06:04:01.481Z,97095.44
2017-09-10T06:06:28.992Z,97094.08
2017-09-10T06:08:56.493Z,97094.12
2017-09-10T06:11:23.997Z,97101.62
2017-09-10T06:13:51.507Z,97100.46
2017-09-10T06:16:19.043Z,97103.32
2017-09-10T06:18:46.538Z,97110.85
2017-09-10T06:21:14.065Z,97118.74
2017-09-10T06:23:41.574Z,97113.98
2017-09-10T06:26:09.077Z,97115.38
2017-09-10T06:28:36.579Z,97114.92
2017-09-10T06:31:04.091Z,97112.82
2017-09-10T06:33:31.622Z,97118.57
2017-09-10T06:35:59.160Z,97118.78
2017-09-10T06:38:26.687Z,97115.13
2017-09-10T06:40:54.192Z,97112.91
2017-09-10T06:43:21.699Z,97122.05
2017-09-10T06:45:49.326Z,97126.80
2017-09-10T06:48:16.928Z,97125.94
2017-09-10T06:50:44.469Z,97125.44
2017-09-10T06:53:11.971Z,97130.86
2017-09-10T06:55:39.483Z,97125.81
2017-09-10T06:58:07.002Z,97124.79
2017-09-10T07:00:34.515Z,97123.19
2017-09-10T07:03:02.033Z,97128.69
2017-09-10T07:05:29.534Z,97135.53
2017-09-10T07:07:57.037Z,97133.73
2017-09-10T07:10:24.564Z,97140.02
2017-09-10T07:12:52.080Z,97144.02
2017-09-10T07:15:19.606Z,97148.22
2017-09-10T07:17:47.121Z,97154.38
2017-09-10T07:20:14.618Z,97155.53
2017-09-10T07:22:42.141Z,97171.11
2017-09-10T07:25:09.671Z,97171.24
2017-09-10T07:27:37.181Z,97165.69
2017-09-10T07:30:04.727Z,97170.66
2017-09-10T07:32:32.247Z,97180.20
2017-09-10T07:34:59.758Z,97180.01
2017-09-10T07:37:27.275Z,97180.98
2017-09-10T07:39:54.794Z,97184.73
2017-09-10T07:42:22.315Z,97193.40
2017-09-10T07:44:49.832Z,97186.92
2017-09-10T07:47:17.336Z,97179.89
2017-09-10T07:49:44.856Z,97182.84
2017-09-10T07:52:12.420Z,97178.72
2017-09-10T07:54:39.929Z,97181.16
2017-09-10T07:57:07.436Z,97187.42
2017-09-10T07:59:34.940Z,97185.08
2017-09-10T08:02:02.455Z,97185.66
2017-09-10T08:04:29.965Z,97191.35
2017-09-10T08:06:57.486Z,97191.00
2017-09-10T08:09:24.994Z,97198.33
2017-09-10T08:11:52.520Z,97201.77
2017-09-10T08:14:20.047Z,97201.20
2017-09-10T08:16:47.555Z,97206.42
2017-09-10T08:19:15.086Z,97214.05
2017-09-10T08:21:42.600Z,97211.42
2017-09-10T08:24:10.144Z,97210.98
2017-09-10T08:26:37.648Z,97212.52
2017-09-10T08:29:05.213Z,97210.13
2017-09-10T08:31:32.732Z,97212.34
2017-09-10T08:34:00.251Z,97216.39
2017-09-10T08:36:27.772Z,97210.08
2017-09-10T08:38:55.303Z,97212.08
2017-09-10T08:41:22.812Z,97207.00
2017-09-10T08:43:50.343Z,97207.95
2017-09-10T08:46:17.867Z,97200.86
2017-09-10T08:48:45.938Z,97204.20
2017-09-10T08:51:13.454Z,97205.28
2017-09-10T08:53:40.968Z,97204.72
2017-09-10T08:56:08.479Z,97207.70
2017-09-10T08:58:35.990Z,97213.33
2017-09-10T09:01:03.503Z,97214.06
2017-09-10T09:03:31.033Z,97214.62
2017-09-10T09:05:58.599Z,97211.51
2017-09-10T09:08:26.111Z,97209.34
2017-09-10T09:10:53.632Z,97212.25
2017-09-10T09:13:21.152Z,97210.02
2017-09-10T09:15:48.685Z,97209.64
2017-09-10T09:18:16.212Z,97207.35
2017-09-10T09:20:43.755Z,97212.92
2017-09-10T09:23:11.328Z,97205.16
2017-09-10T09:25:38.856Z,97213.92
2017-09-10T09:28:06.402Z,97215.81
2017-09-10T09:30:33.916Z,97212.03
2017-09-10T09:33:01.448Z,97215.48
2017-09-10T09:35:28.974Z,97222.66
2017-09-10T09:37:56.524Z,97232.98
2017-09-10T09:40:24.071Z,97233.25
2017-09-10T09:42:51.588Z,97236.30
2017-09-10T09:45:19.129Z,97239.89
2017-09-10T09:47:46.663Z,97248.80
2017-09-10T09:50:14.177Z,97242.55
2017-09-10T09:52:41.696Z,97243.88
2017-09-10T09:55:09.223Z,97235.72
2017-09-10T09:57:36.804Z,97233.42
2017-09-10T10:00:04.311Z,97233.86
2017-09-10T10:02:31.835Z,97237.44
2017-09-10T10:04:59.370Z,97229.30
2017-09-10T10:07:26.879Z,97238.61
2017-09-10T10:09:54.393Z,97245.06
2017-09-10T10:12:21.894Z,97242.19
2017-09-10T10:14:49.415Z,97239.77
2017-09-10T10:17:16.943Z,97241.60
2017-09-10T10:19:44.458Z,97240.23
2017-09-10T10:22:11.972Z,97238.01
2017-09-10T10:24:39.512Z,97235.77
2017-09-10T10:27:07.022Z,97234.48
2017-09-10T10:29:34.539Z,97235.25
2017-09-10T10:32:02.071Z,97229.81
2017-09-10T10:34:30.229Z,97228.81
2017-09-10T10:36:57.768Z,97225.78
2017-09-10T10:39:25.315Z,97226.95
2017-09-10T10:41:52.822Z,97227.78
2017-09-10T10:44:20.345Z,97214.19
2017-09-10T10:46:47.872Z,97221.30
2017-09-10T10:49:15.392Z,97213.63
2017-09-10T10:51:42.904Z,97207.24
2017-09-10T10:54:10.417Z,97214.41
2017-09-10T10:56:37.931Z,97212.66
2017-09-10T10:59:05.452Z,97199.56
2017-09-10T11:01:32.979Z,97196.33
2017-09-10T11:04:00.525Z,97195.89
2017-09-10T11:06:28.058Z,97187.42
2017-09-10T11:08:55.564Z,97180.98
2017-09-10T11:11:23.101Z,97180.96
2017-09-10T11:13:50.601Z,97186.81
2017-09-10T11:16:18.124Z,97177.55
2017-09-10T11:18:45.652Z,97176.86
2017-09-10T11:21:13.214Z,97173.52
2017-09-10T11:23:40.739Z,97173.43
2017-09-10T11:26:08.263Z,97178.47
2017-09-10T11:28:35.873Z,97169.62
2017-09-10T11:31:03.384Z,97162.48
2017-09-10T11:33:30.895Z,97154.30
2017-09-10T11:35:58.398Z,97160.05
2017-09-10T11:38:26.785Z,97162.87
2017-09-10T11:40:54.298Z,97165.34
2017-09-10T11:43:21.806Z,97158.99
2017-09-10T11:45:49.312Z,97156.84
2017-09-10T11:48:16.951Z,97148.81
2017-09-10T11:50:44.585Z,97143.40
2017-09-10T11:53:12.115Z,97155.56
2017-09-10T11:55:39.615Z,97157.48
2017-09-10T11:58:07.135Z,97150.31
2017-09-10T12:00:34.764Z,97150.49
2017-09-10T12:03:02.318Z,97150.85
2017-09-10T12:05:29.826Z,97151.84
2017-09-10T12:07:57.403Z,97152.28
2017-09-10T12:10:24.898Z,97150.35
2017-09-10T12:12:52.427Z,97151.95
2017-09-10T12:15:19.938Z,97151.67
2017-09-10T12:17:47.482Z,97152.81
2017-09-10T12:20:15.020Z,97142.98
2017-09-10T12:22:42.573Z,97144.55
2017-09-10T12:25:10.101Z,97136.74
2017-09-10T12:27:37.622Z,97132.98
2017-09-10T12:30:05.139Z,97131.34
2017-09-10T12:32:32.664Z,97143.25
2017-09-10T12:35:00.191Z,97134.38
2017-09-10T12:37:27.717Z,97139.11
2017-09-10T12:39:55.215Z,97144.53
2017-09-10T12:42:22.727Z,97145.39
2017-09-10T12:44:50.262Z,97137.88
2017-09-10T12:47:17.793Z,97141.83
2017-09-10T12:49:45.367Z,97139.66
2017-09-10T12:52:12.907Z,97131.23
2017-09-10T12:54:40.431Z,97138.81
2017-09-10T12:57:07.937Z,97146.11
2017-09-10T12:59:35.472Z,97141.00
2017-09-10T13:02:03.040Z,97154.91
2017-09-10T13:04:30.567Z,97150.64
2017-09-10T13:06:58.067Z,97150.42
2017-09-10T13:09:25.596Z,97151.69
2017-09-10T13:11:53.122Z,97144.84
2017-09-10T13:14:20.632Z,97143.67
2017-09-10T13:16:48.161Z,97135.13
2017-09-10T13:19:15.727Z,97138.06
2017-09-10T13:21:43.244Z,97132.08
2017-09-10T13:24:10.881Z,97124.77
2017-09-10T13:26:38.395Z,97125.10
2017-09-10T13:29:05.911Z,97126.23
2017-09-10T13:31:33.416Z,97113.34
2017-09-10T13:34:00.956Z,97117.91
2017-09-10T13:36:28.462Z,97124.61
2017-09-10T13:38:55.968Z,97120.73
2017-09-10T13:41:23.489Z,97123.59
2017-09-10T13:43:51.012Z,97113.45
2017-09-10T13:46:18.530Z,97102.90
2017-09-10T13:48:46.041Z,97111.97
2017-09-10T13:51:13.579Z,97117.48
2017-09-10T13:53:41.091Z,97110.55
2017-09-10T13:56:08.679Z,97099.27
2017-09-10T13:58:36.200Z,97094.66
2017-09-10T14:01:03.726Z,97101.55
2017-09-10T14:03:31.262Z,97093.27
2017-09-10T14:05:58.781Z,97089.92
2017-09-10T14:08:26.375Z,97087.08
2017-09-10T14:10:53.928Z,97083.13
2017-09-10T14:13:21.550Z,97086.98
2017-09-10T14:15:49.071Z,97083.79
2017-09-10T14:18:16.619Z,97082.78
2017-09-10T14:20:44.152Z,97084.66
2017-09-10T14:23:11.695Z,97084.77
2017-09-10T14:25:39.212Z,97088.90
2017-09-10T14:28:06.796Z,97086.16
2017-09-10T14:30:34.324Z,97092.58
2017-09-10T14:33:01.836Z,97082.55
2017-09-10T14:35:29.369Z,97088.25
2017-09-10T14:37:56.886Z,97097.47
2017-09-10T14:40:24.436Z,97088.89
2017-09-10T14:42:51.943Z,97087.14
2017-09-10T14:45:19.464Z,97097.03
2017-09-10T14:47:46.964Z,97087.66
2017-09-10T14:50:14.487Z,97091.97
2017-09-10T14:52:42.054Z,97095.81
2017-09-10T14:55:09.579Z,97102.34
2017-09-10T14:57:37.142Z,97096.42
2017-09-10T15:00:04.640Z,97080.39
2017-09-10T15:02:32.159Z,97079.02
2017-09-10T15:04:59.688Z,97088.42
2017-09-10T15:07:27.260Z,97084.25
2017-09-10T15:09:54.764Z,97082.47
2017-09-10T15:12:22.347Z,97088.17
2017-09-10T15:14:49.867Z,97087.67
2017-09-10T15:17:17.383Z,97098.77
2017-09-10T15:19:44.898Z,97098.59
2017-09-10T15:22:12.421Z,97099.38
2017-09-10T15:24:39.952Z,97094.86
2017-09-10T15:27:07.471Z,97095.92
2017-09-10T15:29:35.044Z,97089.75
2017-09-10T15:32:02.547Z,97087.72
2017-09-10T15:34:30.058Z,97077.36
2017-09-10T15:36:57.563Z,97075.41
2017-09-10T15:39:25.076Z,97077.28
2017-09-10T15:41:52.595Z,97084.48
2017-09-10T15:44:21.940Z,97081.34
2017-09-10T15:46:49.447Z,97086.16
2017-09-10T15:49:17.057Z,97087.92
2017-09-10T15:51:44.562Z,97086.11
2017-09-10T15:54:12.072Z,97087.37
2017-09-10T15:56:39.608Z,97081.69
2017-09-10T15:59:07.132Z,97078.15
2017-09-10T16:01:34.683Z,97088.34
2017-09-10T16:04:02.211Z,97076.42
2017-09-10T16:06:29.716Z,97074.77
2017-09-10T16:08:57.226Z,97073.34
2017-09-10T16:11:24.728Z,97082.50
2017-09-10T16:13:52.223Z,97081.13
2017-09-10T16:16:19.723Z,97080.66
2017-09-10T16:18:47.249Z,97074.39
2017-09-10T16:21:14.770Z,97069.23
2017-09-10T16:23:42.334Z,97068.06
2017-09-10T16:26:09.871Z,97069.54
2017-09-10T16:28:37.403Z,97075.70
2017-09-10T16:31:04.936Z,97073.12
2017-09-10T16:33:32.471Z,97069.39
2017-09-10T16:35:59.990Z,97070.44
2017-09-10T16:38:27.621Z,97066.11
2017-09-10T16:40:55.136Z,97071.38
2017-09-10T16:43:22.666Z,97073.77
2017-09-10T16:45:50.188Z,97072.54
2017-09-10T16:48:17.703Z,97071.97
2017-09-10T16:50:45.229Z,97066.42
2017-09-10T16:53:12.779Z,97055.88
2017-09-10T16:55:40.429Z,97052.23
2017-09-10T16:58:07.941Z,97055.92
2017-09-10T17:00:35.653Z,97049.23
2017-09-10T17:03:03.155Z,97054.28
2017-09-10T17:05:30.690Z,97042.30
2017-09-10T17:07:58.204Z,97038.52
2017-09-10T17:10:25.796Z,97035.48
2017-09-10T17:12:53.309Z,97044.36
2017-09-10T17:15:20.852Z,97047.41
2017-09-10T17:17:48.356Z,97056.67
2017-09-10T17:20:15.875Z,97048.62
2017-09-10T17:22:43.383Z,97052.41
2017-09-10T17:25:10.908Z,97044.51
2017-09-10T17:27:38.431Z,97046.98
2017-09-10T17:30:05.968Z,97046.86
2017-09-10T17:32:33.475Z,97055.48
2017-09-10T17:35:01.015Z,97047.32
2017-09-10T17:37:28.622Z,97039.92
2017-09-10T17:39:56.203Z,97043.10
2017-09-10T17:42:23.747Z,97040.69
2017-09-10T17:44:51.263Z,97037.89
2017-09-10T17:47:18.809Z,97046.71
2017-09-10T17:49:46.460Z,97049.31
2017-09-10T17:52:13.975Z,97051.72
2017-09-10T17:54:41.491Z,97057.88
2017-09-10T17:57:09.041Z,97052.16
2017-09-10T17:59:36.589Z,97057.06
2017-09-10T18:02:04.147Z,97058.64
2017-09-10T18:04:31.694Z,97057.46
2017-09-10T18:06:59.241Z,97067.73
2017-09-10T18:09:26.757Z,97071.50
2017-09-10T18:11:54.287Z,97073.67
2017-09-10T18:14:21.811Z,97074.26
2017-09-10T18:16:49.316Z,97074.70
2017-09-10T18:19:16.833Z,97078.91
2017-09-10T18:21:44.339Z,97081.41
2017-09-10T18:24:11.867Z,97091.02
2017-09-10T18:26:39.368Z,97084.55
2017-09-10T18:29:06.888Z,97086.92
2017-09-10T18:31:34.416Z,97087.48
2017-09-10T18:34:01.927Z,97091.45
2017-09-10T18:36:29.583Z,97090.20
2017-09-10T18:38:57.130Z,97091.27
2017-09-10T18:41:24.659Z,97094.48
2017-09-10T18:43:52.158Z,97094.43
2017-09-10T18:46:19.704Z,97091.63
2017-09-10T18:48:47.230Z,97093.97
2017-09-10T18:51:14.765Z,97097.48
2017-09-10T18:53:42.313Z,97102.14
2017-09-10T18:56:09.866Z,97108.23
2017-09-10T18:58:37.372Z,97105.94
2017-09-10T19:01:04.887Z,97106.01
2017-09-10T19:03:32.389Z,97111.12
2017-09-10T19:05:59.895Z,97106.75
2017-09-10T19:08:27.412Z,97107.79
2017-09-10T19:10:54.963Z,97105.00
2017-09-10T19:13:22.519Z,97111.38
2017-09-10T19:15:50.061Z,97108.45
2017-09-10T19:18:17.579Z,97113.63
2017-09-10T19:20:45.219Z,97102.84
2017-09-10T19:23:12.730Z,97107.41
2017-09-10T19:25:40.231Z,97109.83
2017-09-10T19:28:07.748Z,97105.14
2017-09-10T19:30:35.283Z,97101.64
2017-09-10T19:33:02.792Z,97099.44
2017-09-10T19:35:30.340Z,97100.39
2017-09-10T19:37:57.979Z,97103.45
2017-09-10T19:40:25.509Z,97101.61
2017-09-10T19:42:53.028Z,97105.48
2017-09-10T19:45:20.564Z,97109.15
2017-09-10T19:47:48.098Z,97107.50
2017-09-10T19:50:15.657Z,97105.64
2017-09-10T19:52:43.365Z,97105.44
2017-09-10T19:55:10.876Z,97100.84
2017-09-10T19:57:38.449Z,97102.94
2017-09-10T20:00:05.963Z,97098.75
2017-09-10T20:02:33.572Z,97102.14
2017-09-10T20:05:01.096Z,97104.32
2017-09-10T20:07:28.616Z,97100.53
2017-09-10T20:09:56.793Z,97098.81
2017-09-10T20:12:24.316Z,97106.94
2017-09-10T20:14:51.831Z,97106.56
2017-09-10T20:17:19.382Z,97108.34
2017-09-10T20:19:46.915Z,97104.46
2017-09-10T20:22:14.554Z,97102.09
2017-09-10T20:24:42.067Z,97105.11
2017-09-10T20:27:09.591Z,97112.68
2017-09-10T20:29:37.137Z,97106.35
2017-09-10T20:32:04.653Z,97102.50
2017-09-10T20:34:32.168Z,97104.84
2017-09-10T20:36:59.693Z,97112.12
2017-09-10T20:39:27.214Z,97109.09
2017-09-10T20:41:54.720Z,97106.66
2017-09-10T20:44:22.291Z,97108.77
2017-09-10T20:46:49.815Z,97102.70
2017-09-10T20:49:17.408Z,97107.24
2017-09-10T20:51:44.921Z,97112.16
2017-09-10T20:54:12.468Z,97111.98
2017-09-10T20:56:40.006Z,97110.93
2017-09-10T20:59:07.557Z,97102.31
2017-09-10T21:01:35.100Z,97104.98
2017-09-10T21:04:02.649Z,97106.30
2017-09-10T21:06:30.199Z,97103.31
2017-09-10T21:08:57.730Z,97101.20
2017-09-10T21:11:25.239Z,97105.52
2017-09-10T21:13:52.780Z,97105.39
2017-09-10T21:16:20.288Z,97103.07
2017-09-10T21:18:47.796Z,97106.40
2017-09-10T21:21:15.304Z,97104.58
2017-09-10T21:23:42.909Z,97103.88
2017-09-10T21:26:10.410Z,97109.12
2017-09-10T21:28:38.024Z,97095.24
2017-09-10T21:31:05.585Z,97095.48
2017-09-10T21:33:33.084Z,97097.39
2017-09-10T21:36:00.588Z,97102.42
2017-09-10T21:38:28.123Z,97095.20
2017-09-10T21:40:55.660Z,97099.11
2017-09-10T21:43:23.199Z,97100.24
2017-09-10T21:45:50.707Z,97100.43
2017-09-10T21:48:18.218Z,97096.30
2017-09-10T21:50:45.722Z,97101.98
2017-09-10T21:53:13.239Z,97096.01
2017-09-10T21:55:40.742Z,97095.05
2017-09-10T21:58:08.321Z,97088.95
2017-09-10T22:00:35.829Z,97089.20
2017-09-10T22:03:03.356Z,97091.11
2017-09-10T22:05:30.871Z,97083.38
2017-09-10T22:07:58.389Z,97078.88
2017-09-10T22:10:25.905Z,97075.22
2017-09-10T22:12:53.411Z,97070.86
2017-09-10T22:15:21.015Z,97075.16
2017-09-10T22:17:48.587Z,97074.83
2017-09-10T22:20:16.087Z,97076.04
2017-09-10T22:22:43.703Z,97070.39
2017-09-10T22:25:11.200Z,97068.86
2017-09-10T22:27:38.718Z,97064.11
2017-09-10T22:30:06.276Z,97065.94
2017-09-10T22:32:34.111Z,97069.52
2017-09-10T22:35:01.635Z,97063.05
2017-09-10T22:37:29.136Z,97060.05
2017-09-10T22:39:56.900Z,97058.60
2017-09-10T22:42:24.403Z,97053.86
2017-09-10T22:44:51.899Z,97052.92
2017-09-10T22:47:19.402Z,97048.62
2017-09-10T22:49:46.930Z,97052.98
2017-09-10T22:52:14.451Z,97050.40
2017-09-10T22:54:41.954Z,97047.08
2017-09-10T22:57:09.517Z,97047.86
2017-09-10T22:59:37.022Z,97041.41
2017-09-10T23:02:04.518Z,97041.73
2017-09-10T23:04:32.016Z,97039.39
2017-09-10T23:06:59.524Z,97039.56
2017-09-10T23:09:29.847Z,97043.28
2017-09-10T23:11:57.351Z,97039.98
2017-09-10T23:14:24.862Z,97034.52
2017-09-10T23:16:52.396Z,97033.84
2017-09-10T23:19:19.904Z,97033.03
2017-09-10T23:21:47.424Z,97043.69
2017-09-10T23:24:14.948Z,97035.90
2017-09-10T23:26:42.468Z,97036.55
2017-09-10T23:29:09.976Z,97038.52
2017-09-10T23:31:37.481Z,97031.44
2017-09-10T23:34:05.005Z,97029.99
2017-09-10T23:36:32.499Z,97029.78
2017-09-10T23:38:59.997Z,97032.03
2017-09-10T23:41:27.505Z,97024.83
2017-09-10T23:43:55.010Z,97026.31
2017-09-10T23:46:22.511Z,97030.05
2017-09-10T23:48:50.006Z,97029.42
2017-09-10T23:51:17.503Z,97032.28
2017-09-10T23:53:45.024Z,97024.83
2017-09-10T23:56:12.524Z,97029.04
2017-09-10T23:58:40.023Z,97015.84
